Time;durP1;ratioP1;P1;durP2;ratioP2;P2;SDS_P1;SDS_P2;PMS_P1;PMS_P2;Temp;Humidity;BMP_temperature;BMP_pressure;BME280_temperature;BME280_humidity;BME280_pressure;Samples;Min_cycle;Max_cycle;Signal;HPM_P1;HPM_P2
2023/08/06 00:00:37;;;;;;;9.93;6.85;;;;;;;;;;2558533;23;20139;-90
2023/08/06 00:01:37;;;;;;;11.02;6.53;;;;;;;;;;2555481;23;20001;-91
2023/08/06 00:02:38;;;;;;;7.70;6.85;;;;;;;;;;2118904;23;10001292;-91
2023/08/06 00:03:38;;;;;;;8.20;6.35;;;;;;;;;;2559809;23;20012;-91
2023/08/06 00:04:38;;;;;;;10.27;6.93;;;;;;;;;;2555352;23;20011;-91
2023/08/06 00:05:42;;;;;;;7.22;6.32;;;;;;;;;;2543650;23;20408;-92
2023/08/06 00:06:42;;;;;;;6.97;6.22;;;;;;;;;;2548840;23;20065;-91
2023/08/06 00:07:44;;;;;;;9.48;6.78;;;;;;;;;;2548154;23;19997;-91
2023/08/06 00:08:45;;;;;;;8.15;5.72;;;;;;;;;;2548498;23;19994;-91
2023/08/06 00:09:45;;;;;;;11.52;6.85;;;;;;;;;;2549168;23;20108;-91
2023/08/06 00:10:48;;;;;;;11.07;6.30;;;;;;;;;;2565438;23;20157;-91
2023/08/06 00:11:48;;;;;;;10.82;6.80;;;;;;;;;;2555874;23;20047;-91
2023/08/06 00:12:49;;;;;;;8.07;6.32;;;;;;;;;;2555621;23;20123;-90
2023/08/06 00:13:49;;;;;;;9.68;6.80;;;;;;;;;;2543292;23;20006;-91
2023/08/06 00:14:50;;;;;;;11.25;6.82;;;;;;;;;;2555676;23;20035;-91
2023/08/06 00:15:51;;;;;;;10.15;6.97;;;;;;;;;;2129400;23;10227594;-91
2023/08/06 00:16:51;;;;;;;8.82;6.47;;;;;;;;;;2540071;23;20088;-90
2023/08/06 00:17:52;;;;;;;10.32;6.22;;;;;;;;;;2555217;23;20020;-92
2023/08/06 00:18:52;;;;;;;8.38;6.32;;;;;;;;;;2555192;23;20001;-91
2023/08/06 00:19:52;;;;;;;11.70;6.88;;;;;;;;;;2543025;23;20502;-92
2023/08/06 00:20:53;;;;;;;8.30;6.25;;;;;;;;;;2559553;23;19996;-92
2023/08/06 00:21:53;;;;;;;7.03;6.32;;;;;;;;;;2555205;23;20071;-91
2023/08/06 00:22:53;;;;;;;8.70;6.28;;;;;;;;;;2559503;23;20153;-90
2023/08/06 00:23:54;;;;;;;9.88;6.80;;;;;;;;;;2555236;23;20029;-91
2023/08/06 00:24:57;;;;;;;8.73;6.72;;;;;;;;;;2542981;23;20049;-91
2023/08/06 00:25:57;;;;;;;9.43;6.57;;;;;;;;;;2559638;23;20044;-91
2023/08/06 00:26:58;;;;;;;8.98;6.63;;;;;;;;;;2562834;23;19981;-91
2023/08/06 00:27:58;;;;;;;10.93;6.45;;;;;;;;;;2566863;23;20008;-90
2023/08/06 00:28:58;;;;;;;9.00;6.35;;;;;;;;;;2554769;23;19994;-91
2023/08/06 00:29:59;;;;;;;12.98;6.68;;;;;;;;;;2561274;23;20155;-91
2023/08/06 00:30:59;;;;;;;7.95;6.57;;;;;;;;;;2556257;23;20029;-90
2023/08/06 00:32:00;;;;;;;8.75;6.15;;;;;;;;;;2556281;23;20447;-90
2023/08/06 00:33:00;;;;;;;8.27;6.25;;;;;;;;;;2556577;23;20008;-92
2023/08/06 00:34:00;;;;;;;9.98;6.57;;;;;;;;;;2572420;23;20037;-92
2023/08/06 00:35:01;;;;;;;8.07;6.35;;;;;;;;;;2555398;23;20017;-92
2023/08/06 00:36:02;;;;;;;9.77;6.78;;;;;;;;;;2542930;23;20136;-91
2023/08/06 00:37:02;;;;;;;14.93;7.00;;;;;;;;;;2547762;23;20104;-90
2023/08/06 00:38:03;;;;;;;9.35;6.70;;;;;;;;;;2549886;23;20013;-89
2023/08/06 00:39:03;;;;;;;9.32;6.95;;;;;;;;;;2544343;23;20047;-91
2023/08/06 00:40:04;;;;;;;8.43;6.32;;;;;;;;;;2559322;23;19993;-91
2023/08/06 00:41:05;;;;;;;11.85;6.63;;;;;;;;;;2555270;23;20084;-91
2023/08/06 00:42:05;;;;;;;7.53;6.72;;;;;;;;;;2559568;23;20004;-91
2023/08/06 00:43:06;;;;;;;11.13;7.05;;;;;;;;;;2554988;23;20410;-91
2023/08/06 00:44:06;;;;;;;8.32;6.20;;;;;;;;;;2543149;23;20384;-92
2023/08/06 00:45:07;;;;;;;11.20;7.30;;;;;;;;;;2542738;23;20025;-91
2023/08/06 00:46:07;;;;;;;11.43;8.70;;;;;;;;;;2543090;23;20184;-91
2023/08/06 00:47:08;;;;;;;12.70;7.43;;;;;;;;;;2559282;23;20007;-92
2023/08/06 00:48:09;;;;;;;9.10;7.70;;;;;;;;;;2555229;23;19993;-91
2023/08/06 00:49:09;;;;;;;12.48;7.15;;;;;;;;;;2543000;23;20402;-91
2023/08/06 00:50:10;;;;;;;9.32;7.05;;;;;;;;;;2543060;23;20359;-91
2023/08/06 00:51:11;;;;;;;8.52;6.60;;;;;;;;;;2559400;23;20005;-91
2023/08/06 00:52:13;;;;;;;10.32;6.93;;;;;;;;;;2555192;23;20079;-92
2023/08/06 00:53:14;;;;;;;8.40;6.20;;;;;;;;;;2543253;23;20024;-92
2023/08/06 00:54:15;;;;;;;8.77;6.60;;;;;;;;;;2559627;23;19993;-91
2023/08/06 00:55:15;;;;;;;10.15;7.05;;;;;;;;;;2554894;23;20192;-91
2023/08/06 00:56:16;;;;;;;14.02;7.65;;;;;;;;;;2543094;23;20065;-92
2023/08/06 00:57:16;;;;;;;9.48;7.13;;;;;;;;;;2559317;23;20000;-91
2023/08/06 00:58:17;;;;;;;10.77;7.10;;;;;;;;;;2555051;23;20316;-92
2023/08/06 00:59:17;;;;;;;10.10;6.97;;;;;;;;;;2555360;23;20083;-91
2023/08/06 01:00:19;;;;;;;9.38;6.82;;;;;;;;;;2542717;23;20375;-91
2023/08/06 01:01:20;;;;;;;8.02;7.13;;;;;;;;;;2542929;23;20580;-91
2023/08/06 01:02:20;;;;;;;8.70;7.07;;;;;;;;;;2542833;23;20005;-92
2023/08/06 01:03:21;;;;;;;8.80;7.65;;;;;;;;;;2559037;23;19993;-91
2023/08/06 01:04:22;;;;;;;13.93;7.97;;;;;;;;;;2555501;23;20021;-91
2023/08/06 01:05:23;;;;;;;11.32;7.25;;;;;;;;;;2542900;23;20400;-91
2023/08/06 01:06:45;;;;;;;8.60;7.18;;;;;;;;;;2555262;23;20043;-91
2023/08/06 01:08:11;;;;;;;9.48;7.18;;;;;;;;;;2547270;23;20001;-91
2023/08/06 01:09:44;;;;;;;9.68;7.65;;;;;;;;;;2547870;23;19997;-92
2023/08/06 01:11:18;;;;;;;9.13;7.03;;;;;;;;;;2559632;23;20003;-91
2023/08/06 01:12:18;;;;;;;10.07;7.32;;;;;;;;;;2560210;23;20004;-92
2023/08/06 01:13:23;;;;;;;10.00;7.90;;;;;;;;;;2560274;23;20064;-92
2023/08/06 01:14:57;;;;;;;15.07;8.35;;;;;;;;;;2555370;23;20027;-91
2023/08/06 01:15:59;;;;;;;9.45;7.32;;;;;;;;;;2534251;23;20006;-92
2023/08/06 01:17:01;;;;;;;10.48;7.50;;;;;;;;;;2558065;23;19997;-90
2023/08/06 01:18:02;;;;;;;12.20;7.72;;;;;;;;;;2563151;23;19997;-91
2023/08/06 01:19:02;;;;;;;12.68;8.05;;;;;;;;;;2556535;23;20351;-92
2023/08/06 01:20:03;;;;;;;12.32;7.28;;;;;;;;;;2543003;23;20085;-91
2023/08/06 01:21:04;;;;;;;11.07;7.40;;;;;;;;;;2559564;23;20024;-91
2023/08/06 01:22:04;;;;;;;9.52;7.55;;;;;;;;;;2555191;23;20004;-92
2023/08/06 01:23:05;;;;;;;8.57;7.53;;;;;;;;;;2546928;23;20005;-91
2023/08/06 01:24:05;;;;;;;10.75;8.07;;;;;;;;;;2563202;23;20344;-88
2023/08/06 01:25:07;;;;;;;10.43;7.50;;;;;;;;;;2561571;23;20492;-92
2023/08/06 01:26:16;;;;;;;12.60;7.72;;;;;;;;;;2555343;23;20001;-91
2023/08/06 01:27:32;;;;;;;12.10;7.72;;;;;;;;;;2544651;23;20108;-91
2023/08/06 01:28:47;;;;;;;10.25;6.80;;;;;;;;;;2560038;23;19996;-91
2023/08/06 01:29:56;;;;;;;10.35;7.75;;;;;;;;;;2555110;23;20060;-91
2023/08/06 01:31:01;;;;;;;11.70;8.13;;;;;;;;;;2544670;23;20144;-91
2023/08/06 01:32:03;;;;;;;12.38;7.88;;;;;;;;;;2543491;23;20179;-90
2023/08/06 01:33:05;;;;;;;11.38;7.53;;;;;;;;;;2543348;23;20230;-92
2023/08/06 01:34:13;;;;;;;12.00;8.27;;;;;;;;;;2559491;23;20339;-92
2023/08/06 01:35:16;;;;;;;11.63;7.95;;;;;;;;;;2554987;23;20354;-91
2023/08/06 01:36:18;;;;;;;9.60;7.82;;;;;;;;;;2559253;23;20006;-91
2023/08/06 01:37:18;;;;;;;11.90;7.63;;;;;;;;;;2555063;23;20351;-91
2023/08/06 01:38:20;;;;;;;14.35;8.32;;;;;;;;;;2555021;23;20028;-92
2023/08/06 01:39:21;;;;;;;12.82;8.15;;;;;;;;;;2555073;23;20036;-91
2023/08/06 01:40:21;;;;;;;12.05;8.57;;;;;;;;;;2542421;23;19994;-91
2023/08/06 01:41:21;;;;;;;12.93;8.40;;;;;;;;;;2542821;23;20076;-92
2023/08/06 01:42:22;;;;;;;13.90;8.35;;;;;;;;;;2555079;23;19996;-91
2023/08/06 01:43:22;;;;;;;9.60;8.60;;;;;;;;;;2571815;23;20012;-91
2023/08/06 01:44:23;;;;;;;11.96;7.69;;;;;;;;;;2120174;23;10206996;-92
2023/08/06 01:45:23;;;;;;;;;;;;;;;;;;2107126;23;10268528;-91
2023/08/06 01:46:24;;;;;;;12.80;8.57;;;;;;;;;;2542930;23;19952;-92
2023/08/06 01:47:24;;;;;;;10.98;7.93;;;;;;;;;;2554987;23;20474;-90
2023/08/06 01:48:24;;;;;;;14.63;8.57;;;;;;;;;;2555144;23;20052;-91
2023/08/06 01:49:25;;;;;;;14.15;8.13;;;;;;;;;;2542685;23;19990;-90
2023/08/06 01:50:25;;;;;;;10.60;8.52;;;;;;;;;;2542667;23;20380;-91
2023/08/06 01:51:25;;;;;;;12.30;8.82;;;;;;;;;;2554918;23;20111;-91
2023/08/06 01:52:27;;;;;;;12.55;8.60;;;;;;;;;;2542522;23;20486;-90
2023/08/06 01:53:27;;;;;;;16.48;9.07;;;;;;;;;;2559014;23;19989;-91
2023/08/06 01:54:28;;;;;;;13.05;8.30;;;;;;;;;;2560088;23;19989;-91
2023/08/06 01:55:30;;;;;;;14.32;8.57;;;;;;;;;;2526467;23;20252;-92
2023/08/06 01:56:30;;;;;;;13.20;8.60;;;;;;;;;;2534733;23;20379;-91
2023/08/06 01:57:31;;;;;;;13.98;9.15;;;;;;;;;;2547608;23;19989;-91
2023/08/06 01:58:31;;;;;;;12.00;8.43;;;;;;;;;;2530421;23;19998;-91
2023/08/06 01:59:31;;;;;;;13.93;9.35;;;;;;;;;;2518345;23;20037;-91
2023/08/06 02:00:32;;;;;;;10.25;8.35;;;;;;;;;;2534696;23;20001;-92
2023/08/06 02:01:32;;;;;;;14.27;8.13;;;;;;;;;;2530411;23;19998;-91
2023/08/06 02:02:33;;;;;;;14.82;8.77;;;;;;;;;;2518430;23;20417;-91
2023/08/06 02:03:34;;;;;;;10.85;8.32;;;;;;;;;;2530502;23;20460;-91
2023/08/06 02:04:34;;;;;;;13.60;8.63;;;;;;;;;;2530379;23;19994;-92
2023/08/06 02:05:35;;;;;;;13.52;8.15;;;;;;;;;;2530631;23;20076;-92
2023/08/06 02:06:35;;;;;;;13.48;9.00;;;;;;;;;;2518358;23;19994;-91
2023/08/06 02:07:35;;;;;;;16.17;9.32;;;;;;;;;;2518443;23;19998;-91
2023/08/06 02:08:36;;;;;;;15.00;9.43;;;;;;;;;;2530745;23;20004;-92
2023/08/06 02:09:36;;;;;;;13.20;9.00;;;;;;;;;;2537534;23;20005;-90
2023/08/06 02:10:37;;;;;;;15.25;9.38;;;;;;;;;;2537470;23;20069;-92
2023/08/06 02:11:37;;;;;;;11.90;8.73;;;;;;;;;;2534597;23;20429;-92
2023/08/06 02:12:37;;;;;;;12.90;9.10;;;;;;;;;;2530587;23;20407;-92
2023/08/06 02:13:38;;;;;;;13.40;9.00;;;;;;;;;;2518463;23;20029;-92
2023/08/06 02:14:38;;;;;;;11.23;9.15;;;;;;;;;;2530528;23;20005;-92
2023/08/06 02:15:43;;;;;;;10.30;8.77;;;;;;;;;;2518321;23;20002;-92
2023/08/06 02:16:43;;;;;;;10.57;8.98;;;;;;;;;;2535173;23;20008;-92
2023/08/06 02:17:44;;;;;;;12.57;8.75;;;;;;;;;;2530527;23;20080;-92
2023/08/06 02:18:44;;;;;;;10.77;8.20;;;;;;;;;;2518676;23;20006;-91
2023/08/06 02:19:47;;;;;;;12.05;9.50;;;;;;;;;;2530302;23;20032;-91
2023/08/06 02:20:58;;;;;;;10.82;8.90;;;;;;;;;;2530452;23;19998;-92
2023/08/06 02:21:58;;;;;;;12.00;9.00;;;;;;;;;;2536887;23;20483;-92
2023/08/06 02:22:59;;;;;;;11.18;9.02;;;;;;;;;;2530495;23;20013;-92
2023/08/06 02:23:59;;;;;;;14.15;9.35;;;;;;;;;;2530401;23;20032;-91
2023/08/06 02:24:59;;;;;;;11.35;9.13;;;;;;;;;;2542688;23;19997;-92
2023/08/06 02:26:01;;;;;;;10.63;9.35;;;;;;;;;;2518674;23;20535;-92
2023/08/06 02:27:02;;;;;;;14.20;9.48;;;;;;;;;;2542486;23;20024;-91
2023/08/06 02:28:02;;;;;;;13.60;9.93;;;;;;;;;;2530448;23;20016;-92
2023/08/06 02:29:03;;;;;;;13.55;9.60;;;;;;;;;;2518483;23;20104;-91
2023/08/06 02:30:05;;;;;;;16.15;10.68;;;;;;;;;;2534752;23;20026;-91
2023/08/06 02:31:06;;;;;;;15.68;10.25;;;;;;;;;;2530492;23;20359;-91
2023/08/06 02:32:07;;;;;;;17.75;10.60;;;;;;;;;;2530397;23;20059;-91
2023/08/06 02:33:07;;;;;;;13.30;9.55;;;;;;;;;;2530334;23;20186;-91
2023/08/06 02:34:08;;;;;;;17.10;10.27;;;;;;;;;;2534627;23;20035;-92
2023/08/06 02:35:08;;;;;;;15.38;9.57;;;;;;;;;;2530325;23;20021;-91
2023/08/06 02:36:09;;;;;;;12.65;9.10;;;;;;;;;;2518200;23;20443;-92
2023/08/06 02:37:09;;;;;;;12.32;9.00;;;;;;;;;;2530574;23;20004;-91
2023/08/06 02:38:09;;;;;;;13.55;9.45;;;;;;;;;;2530625;23;20014;-90
2023/08/06 02:39:10;;;;;;;12.02;9.27;;;;;;;;;;2530431;23;20436;-90
2023/08/06 02:40:11;;;;;;;15.15;9.95;;;;;;;;;;2518410;23;20031;-91
2023/08/06 02:41:11;;;;;;;12.32;9.48;;;;;;;;;;2534744;23;19994;-90
2023/08/06 02:42:11;;;;;;;15.57;10.25;;;;;;;;;;2547480;23;20458;-90
2023/08/06 02:43:12;;;;;;;12.50;9.80;;;;;;;;;;2530477;23;20021;-90
2023/08/06 02:44:13;;;;;;;12.27;9.95;;;;;;;;;;2518331;23;19999;-91
2023/08/06 02:45:13;;;;;;;14.80;10.63;;;;;;;;;;2530523;23;19998;-90
2023/08/06 02:46:14;;;;;;;17.88;11.02;;;;;;;;;;2542913;23;20030;-91
2023/08/06 02:47:14;;;;;;;13.73;9.93;;;;;;;;;;2541652;23;20002;-90
2023/08/06 02:48:14;;;;;;;18.50;11.13;;;;;;;;;;2522033;23;20041;-91
2023/08/06 02:49:15;;;;;;;11.55;10.27;;;;;;;;;;2523832;23;20026;-91
2023/08/06 02:50:15;;;;;;;16.02;10.65;;;;;;;;;;2518790;23;20093;-91
2023/08/06 02:51:16;;;;;;;15.07;10.30;;;;;;;;;;2530747;23;20025;-91
2023/08/06 02:52:16;;;;;;;18.63;10.68;;;;;;;;;;2547407;23;20293;-91
2023/08/06 02:53:17;;;;;;;12.35;10.32;;;;;;;;;;2531117;23;20009;-91
2023/08/06 02:54:18;;;;;;;15.23;10.38;;;;;;;;;;2518598;23;20003;-91
2023/08/06 02:55:18;;;;;;;13.55;10.25;;;;;;;;;;2522369;23;20441;-90
2023/08/06 02:56:19;;;;;;;19.83;10.85;;;;;;;;;;2527234;23;20002;-91
2023/08/06 02:57:19;;;;;;;13.18;10.40;;;;;;;;;;2538752;23;20033;-91
2023/08/06 02:58:23;;;;;;;15.57;10.10;;;;;;;;;;2548418;23;20343;-91
2023/08/06 02:59:23;;;;;;;17.80;10.57;;;;;;;;;;2531096;23;20029;-91
2023/08/06 03:00:24;;;;;;;20.45;10.73;;;;;;;;;;2535038;23;20060;-91
2023/08/06 03:01:26;;;;;;;17.10;10.55;;;;;;;;;;2531480;23;19990;-90
2023/08/06 03:02:27;;;;;;;13.43;10.23;;;;;;;;;;2519247;23;19995;-92
2023/08/06 03:03:27;;;;;;;14.38;10.38;;;;;;;;;;2518611;23;20026;-90
2023/08/06 03:04:27;;;;;;;17.17;10.80;;;;;;;;;;2530870;23;19997;-92
2023/08/06 03:05:28;;;;;;;16.98;10.82;;;;;;;;;;2531176;23;19997;-92
2023/08/06 03:06:28;;;;;;;13.68;10.57;;;;;;;;;;2531359;23;20132;-91
2023/08/06 03:07:29;;;;;;;13.38;10.82;;;;;;;;;;2519035;23;20042;-91
2023/08/06 03:08:31;;;;;;;14.50;11.23;;;;;;;;;;2530987;23;20015;-90
2023/08/06 03:09:31;;;;;;;16.30;10.38;;;;;;;;;;2547398;23;20439;-90
2023/08/06 03:10:32;;;;;;;14.45;10.43;;;;;;;;;;2547529;23;19989;-91
2023/08/06 03:11:32;;;;;;;18.17;11.50;;;;;;;;;;2530681;23;19994;-90
2023/08/06 03:12:32;;;;;;;14.30;10.68;;;;;;;;;;2534425;23;20549;-90
2023/08/06 03:13:33;;;;;;;13.60;10.68;;;;;;;;;;2530317;23;20021;-90
2023/08/06 03:14:33;;;;;;;16.63;10.50;;;;;;;;;;2530448;23;20048;-91
2023/08/06 03:15:35;;;;;;;14.63;9.93;;;;;;;;;;2530599;23;19998;-92
2023/08/06 03:16:35;;;;;;;14.88;10.68;;;;;;;;;;2535824;23;19994;-92
2023/08/06 03:17:36;;;;;;;11.85;10.25;;;;;;;;;;2548308;23;20013;-92
2023/08/06 03:18:36;;;;;;;16.63;11.65;;;;;;;;;;2531236;23;20004;-92
2023/08/06 03:19:36;;;;;;;19.63;11.88;;;;;;;;;;2519246;23;20005;-92
2023/08/06 03:20:37;;;;;;;16.45;11.00;;;;;;;;;;2531360;23;19990;-92
2023/08/06 03:21:37;;;;;;;;;;;;;;;;;;2096943;23;10287494;-92
2023/08/06 03:22:37;;;;;;;13.70;10.37;;;;;;;;;;2535255;23;19900;-91
2023/08/06 03:23:38;;;;;;;16.30;11.07;;;;;;;;;;2548452;23;20478;-92
2023/08/06 03:24:38;;;;;;;19.02;11.35;;;;;;;;;;2534288;23;20040;-93
2023/08/06 03:26:28;;;;;;;18.77;11.68;;;;;;;;;;2519917;23;19999;-92
2023/08/06 03:27:29;;;;;;;16.83;11.27;;;;;;;;;;2546174;23;20336;-91
2023/08/06 03:28:29;;;;;;;15.35;11.48;;;;;;;;;;2548260;23;20007;-92
2023/08/06 03:29:30;;;;;;;16.75;11.35;;;;;;;;;;2531347;23;19998;-92
2023/08/06 03:30:35;;;;;;;18.83;11.73;;;;;;;;;;2538724;23;19997;-91
2023/08/06 03:31:35;;;;;;;18.70;11.32;;;;;;;;;;2552477;23;20052;-91
2023/08/06 03:32:36;;;;;;;21.02;12.20;;;;;;;;;;2530964;23;20409;-91
2023/08/06 03:33:36;;;;;;;17.40;11.90;;;;;;;;;;2535333;23;20093;-92
2023/08/06 03:34:36;;;;;;;19.85;11.38;;;;;;;;;;2543610;23;20017;-92
2023/08/06 03:35:37;;;;;;;20.30;11.77;;;;;;;;;;2543448;23;20001;-91
2023/08/06 03:36:37;;;;;;;20.52;12.80;;;;;;;;;;2531622;23;20021;-92
2023/08/06 03:37:37;;;;;;;23.08;12.48;;;;;;;;;;2535475;23;19993;-92
2023/08/06 03:38:38;;;;;;;17.85;11.80;;;;;;;;;;2100370;23;10502964;-91
2023/08/06 03:39:39;;;;;;;16.55;12.38;;;;;;;;;;2531118;23;19989;-91
2023/08/06 03:40:39;;;;;;;17.83;12.00;;;;;;;;;;2519050;23;19998;-90
2023/08/06 03:41:40;;;;;;;17.95;12.02;;;;;;;;;;2538269;23;20021;-91
2023/08/06 03:42:40;;;;;;;18.25;11.20;;;;;;;;;;2557967;23;20069;-91
2023/08/06 03:43:41;;;;;;;19.52;11.27;;;;;;;;;;2543213;23;20021;-91
2023/08/06 03:44:41;;;;;;;15.07;10.95;;;;;;;;;;2531586;23;20002;-91
2023/08/06 03:45:42;;;;;;;18.75;11.35;;;;;;;;;;2519337;23;20022;-91
2023/08/06 03:46:42;;;;;;;18.05;11.55;;;;;;;;;;2518771;23;20326;-91
2023/08/06 03:47:42;;;;;;;16.45;11.45;;;;;;;;;;2531319;23;20381;-91
2023/08/06 03:48:43;;;;;;;14.20;11.52;;;;;;;;;;2547539;23;20227;-91
2023/08/06 03:49:43;;;;;;;17.02;10.95;;;;;;;;;;2531075;23;20067;-91
2023/08/06 03:50:44;;;;;;;16.70;11.52;;;;;;;;;;2535455;23;20026;-90
2023/08/06 03:51:44;;;;;;;13.60;11.35;;;;;;;;;;2548331;23;19997;-91
2023/08/06 03:52:45;;;;;;;16.75;11.20;;;;;;;;;;2531114;23;20048;-91
2023/08/06 03:53:45;;;;;;;14.88;11.05;;;;;;;;;;2518998;23;20009;-92
2023/08/06 03:54:45;;;;;;;21.20;12.25;;;;;;;;;;2531150;23;20069;-92
2023/08/06 03:55:46;;;;;;;18.83;12.27;;;;;;;;;;2530823;23;20018;-92
2023/08/06 03:56:46;;;;;;;19.00;12.68;;;;;;;;;;2530968;23;20436;-92
2023/08/06 03:57:47;;;;;;;17.20;12.25;;;;;;;;;;2543326;23;20001;-91
2023/08/06 03:58:47;;;;;;;18.48;11.38;;;;;;;;;;2518820;23;20348;-91
2023/08/06 03:59:47;;;;;;;15.43;11.70;;;;;;;;;;2535390;23;19994;-91
2023/08/06 04:00:48;;;;;;;16.70;11.80;;;;;;;;;;2531239;23;19998;-91
2023/08/06 04:01:48;;;;;;;15.82;11.05;;;;;;;;;;2531300;23;20100;-92
2023/08/06 04:02:49;;;;;;;16.35;11.63;;;;;;;;;;2543886;23;20088;-91
2023/08/06 04:03:50;;;;;;;16.92;11.75;;;;;;;;;;2543512;23;20098;-92
2023/08/06 04:04:53;;;;;;;18.83;12.27;;;;;;;;;;2548622;23;20439;-92
2023/08/06 04:05:54;;;;;;;18.05;12.27;;;;;;;;;;2536535;23;20010;-93
2023/08/06 04:06:55;;;;;;;18.25;13.07;;;;;;;;;;2525550;23;19998;-92
2023/08/06 04:07:56;;;;;;;17.80;12.48;;;;;;;;;;2541516;23;19998;-91
2023/08/06 04:08:56;;;;;;;17.33;12.93;;;;;;;;;;2553442;23;20007;-91
2023/08/06 04:09:59;;;;;;;19.75;13.20;;;;;;;;;;2531580;23;20002;-91
2023/08/06 04:11:00;;;;;;;16.48;12.68;;;;;;;;;;2519593;23;20093;-90
2023/08/06 04:12:01;;;;;;;17.98;13.35;;;;;;;;;;2518939;23;20436;-90
2023/08/06 04:13:02;;;;;;;15.68;13.05;;;;;;;;;;2531123;23;19994;-90
2023/08/06 04:14:02;;;;;;;17.80;12.90;;;;;;;;;;2531405;23;20057;-91
2023/08/06 04:15:03;;;;;;;19.67;13.38;;;;;;;;;;2519276;23;20452;-93
2023/08/06 04:16:04;;;;;;;21.23;13.45;;;;;;;;;;2535509;23;20467;-92
2023/08/06 04:17:05;;;;;;;18.65;13.55;;;;;;;;;;2531503;23;20006;-93
2023/08/06 04:18:05;;;;;;;17.77;12.77;;;;;;;;;;2532497;23;20265;-93
2023/08/06 04:19:05;;;;;;;21.50;13.82;;;;;;;;;;2548430;23;20408;-92
2023/08/06 04:20:06;;;;;;;18.30;12.95;;;;;;;;;;2529801;23;20016;-90
2023/08/06 04:21:07;;;;;;;19.73;13.30;;;;;;;;;;2548393;23;19998;-90
2023/08/06 04:22:07;;;;;;;17.52;12.88;;;;;;;;;;2531010;23;20536;-91
2023/08/06 04:23:08;;;;;;;15.45;12.43;;;;;;;;;;2535180;23;20001;-92
2023/08/06 04:24:08;;;;;;;17.88;13.18;;;;;;;;;;2531037;23;20419;-93
2023/08/06 04:25:09;;;;;;;15.13;12.13;;;;;;;;;;2519134;23;20357;-91
2023/08/06 04:26:09;;;;;;;17.10;13.13;;;;;;;;;;2519152;23;20125;-90
2023/08/06 04:27:11;;;;;;;16.42;12.40;;;;;;;;;;2081125;23;10457899;-91
2023/08/06 04:28:11;;;;;;;18.05;12.43;;;;;;;;;;2543936;23;20025;-89
2023/08/06 04:29:12;;;;;;;19.75;13.38;;;;;;;;;;2536741;23;20044;-91
2023/08/06 04:30:13;;;;;;;16.67;12.38;;;;;;;;;;2531202;23;20393;-91
2023/08/06 04:31:13;;;;;;;18.58;13.63;;;;;;;;;;2537584;23;20006;-96
2023/08/06 04:32:14;;;;;;;18.35;13.90;;;;;;;;;;2518863;23;20531;-92
2023/08/06 04:33:14;;;;;;;19.15;14.38;;;;;;;;;;2535312;23;20428;-91
2023/08/06 04:34:14;;;;;;;17.63;12.65;;;;;;;;;;2530863;23;20045;-93
2023/08/06 04:35:15;;;;;;;17.60;13.15;;;;;;;;;;2530841;23;20025;-91
2023/08/06 04:36:15;;;;;;;21.63;13.45;;;;;;;;;;2531227;23;20104;-91
2023/08/06 04:37:16;;;;;;;17.15;12.43;;;;;;;;;;2518847;23;20021;-92
2023/08/06 04:38:16;;;;;;;23.02;14.10;;;;;;;;;;2535232;23;20001;-91
2023/08/06 04:39:16;;;;;;;17.85;12.73;;;;;;;;;;2548050;23;20073;-92
2023/08/06 04:40:17;;;;;;;18.02;13.85;;;;;;;;;;2531095;23;19998;-92
2023/08/06 04:41:17;;;;;;;19.33;12.95;;;;;;;;;;2518832;23;20069;-91
2023/08/06 04:42:18;;;;;;;18.77;13.05;;;;;;;;;;2518657;23;20006;-92
2023/08/06 04:43:19;;;;;;;16.13;13.43;;;;;;;;;;2531095;23;20085;-91
2023/08/06 04:44:20;;;;;;;22.33;13.48;;;;;;;;;;2547907;23;20001;-92
2023/08/06 04:45:24;;;;;;;17.52;12.43;;;;;;;;;;2544615;23;20016;-92
2023/08/06 04:46:40;;;;;;;20.70;12.93;;;;;;;;;;2551587;23;20076;-91
2023/08/06 04:47:41;;;;;;;15.48;11.70;;;;;;;;;;2524154;23;20053;-91
2023/08/06 04:48:41;;;;;;;14.25;12.48;;;;;;;;;;2523263;23;20005;-91
2023/08/06 04:49:41;;;;;;;17.08;12.82;;;;;;;;;;2548634;23;20033;-92
2023/08/06 04:50:45;;;;;;;15.10;11.70;;;;;;;;;;2531729;23;20002;-91
2023/08/06 04:51:46;;;;;;;16.52;11.32;;;;;;;;;;2536208;23;20370;-91
2023/08/06 04:52:46;;;;;;;14.95;11.40;;;;;;;;;;2531442;23;20005;-92
2023/08/06 04:53:46;;;;;;;15.23;11.32;;;;;;;;;;2519160;23;20102;-91
2023/08/06 04:54:53;;;;;;;12.75;10.50;;;;;;;;;;2531260;23;20009;-90
2023/08/06 04:56:02;;;;;;;15.38;10.15;;;;;;;;;;2530363;23;20092;-91
2023/08/06 04:57:03;;;;;;;14.82;10.05;;;;;;;;;;2536859;23;20005;-93
2023/08/06 04:58:04;;;;;;;15.95;10.63;;;;;;;;;;2543193;23;20436;-93
2023/08/06 04:59:04;;;;;;;14.38;10.73;;;;;;;;;;2530913;23;20420;-92
2023/08/06 05:00:05;;;;;;;15.55;10.88;;;;;;;;;;2518720;23;20133;-92
2023/08/06 05:01:06;;;;;;;18.17;11.80;;;;;;;;;;2530791;23;20049;-91
2023/08/06 05:02:06;;;;;;;12.73;10.80;;;;;;;;;;2534894;23;20004;-91
2023/08/06 05:03:07;;;;;;;17.35;11.70;;;;;;;;;;2548056;23;20047;-91
2023/08/06 05:04:07;;;;;;;23.00;12.38;;;;;;;;;;2543112;23;20004;-92
2023/08/06 05:05:08;;;;;;;17.95;11.82;;;;;;;;;;2530662;23;20155;-92
2023/08/06 05:06:08;;;;;;;17.75;12.38;;;;;;;;;;2534950;23;20336;-92
2023/08/06 05:07:10;;;;;;;18.13;12.25;;;;;;;;;;2538968;23;20002;-92
2023/08/06 05:08:18;;;;;;;17.17;12.75;;;;;;;;;;2546882;23;20024;-91
2023/08/06 05:09:19;;;;;;;16.25;12.35;;;;;;;;;;2555271;23;20060;-92
2023/08/06 05:10:20;;;;;;;17.48;13.23;;;;;;;;;;2537809;23;20021;-92
2023/08/06 05:11:20;;;;;;;21.90;13.13;;;;;;;;;;2536217;23;20025;-92
2023/08/06 05:12:21;;;;;;;18.60;13.30;;;;;;;;;;2531143;23;19994;-92
2023/08/06 05:13:30;;;;;;;19.63;15.00;;;;;;;;;;2521333;23;20069;-93
2023/08/06 05:14:33;;;;;;;22.83;15.45;;;;;;;;;;2542644;23;20004;-92
2023/08/06 05:15:33;;;;;;;19.95;13.45;;;;;;;;;;2551136;23;20111;-92
2023/08/06 05:16:36;;;;;;;20.08;13.35;;;;;;;;;;2542081;23;19994;-92
2023/08/06 05:17:55;;;;;;;15.70;13.38;;;;;;;;;;2531066;23;20017;-91
2023/08/06 05:18:55;;;;;;;17.02;12.48;;;;;;;;;;2522063;23;20389;-92
2023/08/06 05:19:55;;;;;;;18.08;13.13;;;;;;;;;;2535341;23;20004;-92
2023/08/06 05:20:56;;;;;;;17.23;12.88;;;;;;;;;;2530847;23;20130;-92
2023/08/06 05:21:57;;;;;;;16.08;12.73;;;;;;;;;;2518560;23;20429;-92
2023/08/06 05:22:57;;;;;;;18.92;14.30;;;;;;;;;;2535115;23;19994;-92
2023/08/06 05:24:09;;;;;;;25.45;16.27;;;;;;;;;;2542982;23;20329;-91
2023/08/06 05:25:11;;;;;;;28.98;20.23;;;;;;;;;;2531957;23;20005;-91
2023/08/06 05:26:14;;;;;;;17.48;13.50;;;;;;;;;;2535072;23;20004;-91
2023/08/06 05:27:14;;;;;;;17.60;14.02;;;;;;;;;;2530603;23;20073;-91
2023/08/06 05:28:15;;;;;;;17.55;13.68;;;;;;;;;;2518704;23;19998;-92
2023/08/06 05:29:16;;;;;;;20.02;12.70;;;;;;;;;;2530694;23;20005;-92
2023/08/06 05:30:17;;;;;;;18.70;13.43;;;;;;;;;;2547059;23;19997;-93
2023/08/06 05:31:17;;;;;;;21.42;13.20;;;;;;;;;;2531351;23;20065;-92
2023/08/06 05:32:17;;;;;;;19.50;12.82;;;;;;;;;;2535579;23;19993;-93
2023/08/06 05:33:18;;;;;;;20.58;12.90;;;;;;;;;;2530932;23;20049;-91
2023/08/06 05:34:18;;;;;;;18.63;12.70;;;;;;;;;;2518609;23;20025;-92
2023/08/06 05:35:19;;;;;;;19.13;13.10;;;;;;;;;;2531664;23;19998;-92
2023/08/06 05:36:21;;;;;;;16.95;13.45;;;;;;;;;;2546995;23;20017;-92
2023/08/06 05:37:31;;;;;;;17.41;13.07;;;;;;;;;;2517562;23;10252863;-92
2023/08/06 05:38:31;;;;;;;16.85;13.23;;;;;;;;;;2547833;23;20210;-91
2023/08/06 05:39:31;;;;;;;17.75;12.80;;;;;;;;;;2542986;23;19993;-91
2023/08/06 05:40:34;;;;;;;18.88;13.02;;;;;;;;;;2532616;23;20053;-92
2023/08/06 05:41:35;;;;;;;15.50;12.50;;;;;;;;;;2535263;23;19994;-91
2023/08/06 05:42:35;;;;;;;13.18;11.77;;;;;;;;;;2530951;23;20317;-92
2023/08/06 05:43:36;;;;;;;18.13;12.93;;;;;;;;;;2519359;23;20030;-92
2023/08/06 05:44:37;;;;;;;20.13;13.73;;;;;;;;;;2531758;23;19994;-91
2023/08/06 05:45:38;;;;;;;16.58;12.70;;;;;;;;;;2547873;23;20308;-92
2023/08/06 05:46:38;;;;;;;15.57;12.70;;;;;;;;;;2530983;23;20623;-92
2023/08/06 05:47:38;;;;;;;18.88;13.30;;;;;;;;;;2530788;23;20487;-93
2023/08/06 05:48:39;;;;;;;14.32;12.00;;;;;;;;;;2530884;23;20049;-91
2023/08/06 05:49:39;;;;;;;20.45;12.85;;;;;;;;;;2534545;23;20052;-93
2023/08/06 05:50:40;;;;;;;13.48;11.27;;;;;;;;;;2547875;23;19997;-92
2023/08/06 05:51:40;;;;;;;15.32;12.38;;;;;;;;;;2542880;23;20017;-90
2023/08/06 05:52:41;;;;;;;15.18;12.60;;;;;;;;;;2530478;23;20412;-91
2023/08/06 05:53:41;;;;;;;14.88;11.25;;;;;;;;;;2531050;23;19998;-91
2023/08/06 05:54:42;;;;;;;21.10;15.73;;;;;;;;;;2535225;23;20065;-91
2023/08/06 05:55:43;;;;;;;17.95;12.35;;;;;;;;;;2530439;23;20090;-91
2023/08/06 05:56:43;;;;;;;20.60;12.25;;;;;;;;;;2518553;23;20397;-91
2023/08/06 05:57:44;;;;;;;19.42;12.23;;;;;;;;;;2534791;23;19994;-91
2023/08/06 05:58:46;;;;;;;16.67;12.80;;;;;;;;;;2530539;23;20076;-90
2023/08/06 05:59:46;;;;;;;16.87;11.63;;;;;;;;;;2098624;23;10001535;-91
2023/08/06 06:00:47;;;;;;;13.52;11.85;;;;;;;;;;2528549;23;19987;-91
2023/08/06 06:01:47;;;;;;;16.70;12.35;;;;;;;;;;2538677;23;20424;-90